El Monte Airport


Codes: KEMT/EMT
Name: El Monte Airport
City: El Monte
Country: United States
Elevation: 296 ft.
Website:
Wikipedia:

Photos at El Monte Airport


   Photos courtesy of SpottingLog. You can add your own sightings and photos by signing up for a free trial today.



No photos found.

Weather at El Monte Airport


Time (UTC)DescriptionTempratureWindCloud coverageVisibilityPressureHumidity
21-Feb-2024 03:00Light Rain14°C4 mph, S100%10000m1019hPa91%
21-Feb-2024 06:00Light Rain14°C2 mph, SE100%9198m1019hPa90%
21-Feb-2024 09:00Moderate Rain13°C4 mph, S100%3997m1018hPa93%
21-Feb-2024 12:00Moderate Rain13°C7 mph, SW100%10000m1018hPa90%
21-Feb-2024 15:00Light Rain13°C2 mph, SE96%10000m1019hPa86%
21-Feb-2024 18:00Light Rain15°C2 mph, SW92%10000m1021hPa74%
21-Feb-2024 21:00Broken Clouds17°C7 mph, SW81%10000m1020hPa61%
22-Feb-2024 00:00Light Rain16°C7 mph, SW79%10000m1020hPa65%
22-Feb-2024 03:00Broken Clouds14°C4 mph, SW63%10000m1021hPa72%
22-Feb-2024 06:00Broken Clouds14°C2 mph, SW72%10000m1022hPa76%
22-Feb-2024 09:00Broken Clouds13°C0 mph, SE83%10000m1022hPa80%
22-Feb-2024 12:00Overcast Clouds12°C2 mph, E92%10000m1022hPa81%
22-Feb-2024 15:00Broken Clouds12°C2 mph, NE55%10000m1023hPa79%
22-Feb-2024 18:00Scattered Clouds16°C0 mph, S39%10000m1023hPa55%
22-Feb-2024 21:00Scattered Clouds20°C4 mph, SW37%10000m1021hPa41%
23-Feb-2024 00:00Scattered Clouds20°C7 mph, SW41%10000m1019hPa39%
23-Feb-2024 03:00Broken Clouds16°C4 mph, W83%10000m1021hPa61%
23-Feb-2024 06:00Overcast Clouds15°C2 mph, NE91%10000m1021hPa60%
23-Feb-2024 09:00Overcast Clouds15°C4 mph, N100%10000m1020hPa53%
23-Feb-2024 12:00Overcast Clouds15°C4 mph, N100%10000m1018hPa46%
23-Feb-2024 15:00Overcast Clouds15°C4 mph, N100%10000m1019hPa45%
23-Feb-2024 18:00Overcast Clouds20°C2 mph, NE93%10000m1019hPa30%
23-Feb-2024 21:00Scattered Clouds24°C4 mph, S46%10000m1016hPa22%
24-Feb-2024 00:00Scattered Clouds24°C4 mph, SW43%10000m1015hPa21%
24-Feb-2024 03:00Overcast Clouds20°C2 mph, W99%10000m1016hPa33%
24-Feb-2024 06:00Overcast Clouds18°C0 mph, NE100%10000m1016hPa38%
24-Feb-2024 09:00Overcast Clouds17°C0 mph, N100%10000m1016hPa39%
24-Feb-2024 12:00Overcast Clouds17°C0 mph, NE100%10000m1015hPa41%
24-Feb-2024 15:00Overcast Clouds17°C2 mph, NE100%10000m1016hPa42%
24-Feb-2024 18:00Overcast Clouds21°C4 mph, S100%10000m1016hPa29%
24-Feb-2024 21:00Overcast Clouds23°C7 mph, S100%10000m1016hPa27%
25-Feb-2024 00:00Overcast Clouds22°C7 mph, SW99%10000m1015hPa29%
25-Feb-2024 03:00Clear Sky18°C2 mph, SW2%10000m1016hPa45%
25-Feb-2024 06:00Clear Sky16°C2 mph, S1%10000m1017hPa49%
25-Feb-2024 09:00Clear Sky15°C0 mph, E0%10000m1017hPa56%
25-Feb-2024 12:00Few Clouds14°C0 mph, E17%10000m1016hPa58%
25-Feb-2024 15:00Few Clouds14°C2 mph, E23%10000m1018hPa61%
25-Feb-2024 18:00Broken Clouds18°C4 mph, S59%10000m1018hPa45%
25-Feb-2024 21:00Scattered Clouds21°C7 mph, S25%10000m1016hPa31%
26-Feb-2024 00:00Broken Clouds20°C9 mph, SW62%10000m1015hPa32%